Maplewood, WI (54226)

7:15 AM CDT on June 23, 2017 (GMT -0500)
Forestville | | Change Station

Elev 639 ft 44.69 °N, 87.48 °W | Updated 2 minutes ago

Mostly Cloudy
Mostly Cloudy
65.5 °F
Feels Like 65.5 °F
N
1.2
Wind Variable Wind from NNW
Gusts 3.1 mph

Today
High -- | Low -- °F
--% Chance of Precip.
Yesterday
High -- | Low -- °F
Precip. -- in
Pressure 29.64 in
Visibility 10.0 miles
Clouds Clear
Dew Point 63 °F
Humidity 93%
Rainfall 0.02 in
Snow Depth Not available.
5:04 AM 8:39 PM
Waning Crescent, 1% visible
METAR KOCQ 231155Z AUTO 27003KT 10SM CLR 17/16 A2964 RMK AO1 70057 T01700158 10185 20156
Pressure 29.64 in
Visibility 10.0 miles
Clouds Clear
Dew Point 63 °F
Humidity 93%
Rainfall 0.02 in
Snow Depth Not available.
5:04 AM 8:39 PM
Waning Crescent, 1% visible
METAR KOCQ 231155Z AUTO 27003KT 10SM CLR 17/16 A2964 RMK AO1 70057 T01700158 10185 20156

Get Severe Weather Alerts

Thanks for signing up!

Be on the lookout for a verification email in your inbox.

You'll start receiving the daily forecast at 6 AM.

×

10-Day Weather Forecast

Almanac

Astronomy

Jun. 23, 2017 Rise Set
Actual Time
Civil Twilight
Nautical Twilight
Astronomical Twilight
Moon
Length of Visible Light
Length of Day
Tomorrow will be .
, % of the Moon is Illuminated

Today's Extremes

State Highs State Lows

Community

WunderPhotos

Category 6

Welcome to Category 6. This is the collective home for Weather Underground's featured writeups by Dr. Jeff Masters (right), Bob Henson (left), Chris Burt, and other regular contributors.

Nearby

Air Quality

  Air Quality AQ Index Pollutant
Not available.

Snow Depth

Station Depth Elevation

Earthquake Activity

City Distance Mag. Time & Date
Minimum magnitude displayed is 2.5.

Coastal Water Temperatures

Place Temperature

Stations

Nearby Weather Stations

Station Location Temp. Windchill Dew Point Humidity Wind Precip. Elev Updated Type
                   

Watches & Warnings

There are currently no watches in effect.